Time;durP1;ratioP1;P1;durP2;ratioP2;P2;SDS_P1;SDS_P2;PMS_P1;PMS_P2;Temp;Humidity;BMP_temperature;BMP_pressure;BME280_temperature;BME280_humidity;BME280_pressure;Samples;Min_cycle;Max_cycle;Signal;HPM_P1;HPM_P2
2023/06/06 00:00:14;;;;;;;3.10;1.40;;;;;;;;;;10379195;28;20099;-63
2023/06/06 00:05:16;;;;;;;2.60;1.30;;;;;;;;;;10378437;28;20223;-62
2023/06/06 00:10:18;;;;;;;2.88;1.58;;;;;;;;;;10379670;28;20091;-64
2023/06/06 00:15:19;;;;;;;4.00;1.67;;;;;;;;;;10380694;28;20165;-64
2023/06/06 00:20:20;;;;;;;1.92;1.23;;;;;;;;;;10372591;28;20067;-63
2023/06/06 00:25:23;;;;;;;2.20;1.60;;;;;;;;;;10377090;28;20025;-64
2023/06/06 00:30:24;;;;;;;1.75;1.50;;;;;;;;;;10382779;28;20042;-63
2023/06/06 00:35:24;;;;;;;3.22;1.50;;;;;;;;;;10388347;28;20144;-64
2023/06/06 00:40:25;;;;;;;10.85;1.60;;;;;;;;;;10394696;28;20069;-64
2023/06/06 00:45:25;;;;;;;6.90;1.60;;;;;;;;;;10372098;28;20032;-64
2023/06/06 00:50:26;;;;;;;4.10;1.48;;;;;;;;;;10385089;28;20021;-64
2023/06/06 00:55:28;;;;;;;2.00;1.38;;;;;;;;;;10395107;28;20039;-63
2023/06/06 01:00:32;;;;;;;2.30;1.48;;;;;;;;;;10391958;28;20416;-64
2023/06/06 01:05:32;;;;;;;3.55;1.33;;;;;;;;;;10385359;28;20036;-64
2023/06/06 01:10:34;;;;;;;4.50;1.50;;;;;;;;;;10393769;28;20034;-64
2023/06/06 01:15:41;;;;;;;5.20;1.70;;;;;;;;;;10369024;28;20104;-65
2023/06/06 01:20:42;;;;;;;2.35;1.40;;;;;;;;;;10385245;28;20034;-64
2023/06/06 01:25:48;;;;;;;2.78;1.65;;;;;;;;;;10382492;28;20062;-63
2023/06/06 01:30:49;;;;;;;4.07;1.90;;;;;;;;;;10387392;28;20040;-65
2023/06/06 01:36:10;;;;;;;4.45;1.50;;;;;;;;;;10399037;28;20384;-65
2023/06/06 01:41:16;;;;;;;2.90;1.50;;;;;;;;;;10388943;28;20073;-64
2023/06/06 01:46:18;;;;;;;1.38;1.27;;;;;;;;;;10372696;28;20018;-63
2023/06/06 01:51:18;;;;;;;2.65;1.50;;;;;;;;;;10403483;28;20030;-62
2023/06/06 01:56:19;;;;;;;1.23;1.13;;;;;;;;;;10396417;28;20038;-63
2023/06/06 02:01:20;;;;;;;1.80;1.30;;;;;;;;;;10401722;28;20181;-63
2023/06/06 02:06:21;;;;;;;3.65;1.40;;;;;;;;;;10383369;28;20416;-62
2023/06/06 02:11:23;;;;;;;3.97;1.15;;;;;;;;;;10405287;28;20034;-62
2023/06/06 02:16:23;;;;;;;2.70;1.20;;;;;;;;;;10404814;28;20120;-62
2023/06/06 02:21:24;;;;;;;2.35;1.38;;;;;;;;;;10410322;28;20363;-64
2023/06/06 02:26:25;;;;;;;1.35;1.20;;;;;;;;;;10413260;28;20396;-61
2023/06/06 02:31:26;;;;;;;3.90;1.50;;;;;;;;;;10414002;28;20064;-64
2023/06/06 02:36:31;;;;;;;1.60;1.25;;;;;;;;;;10406177;28;20390;-62
2023/06/06 02:41:34;;;;;;;3.35;1.40;;;;;;;;;;10403947;28;20128;-61
2023/06/06 02:46:35;;;;;;;1.27;1.17;;;;;;;;;;10388995;28;20030;-60
2023/06/06 02:51:36;;;;;;;1.42;1.23;;;;;;;;;;10376330;28;20026;-61
2023/06/06 02:56:37;;;;;;;3.42;1.27;;;;;;;;;;10398926;28;20484;-60
2023/06/06 03:01:42;;;;;;;1.65;1.25;;;;;;;;;;10394817;28;20028;-60
2023/06/06 03:06:43;;;;;;;2.85;1.20;;;;;;;;;;10399835;28;20061;-60
2023/06/06 03:11:43;;;;;;;2.38;1.35;;;;;;;;;;10408279;28;20153;-60
2023/06/06 03:16:46;;;;;;;3.63;1.40;;;;;;;;;;10384802;28;20104;-61
2023/06/06 03:21:56;;;;;;;;;;;;;;;;;;;;;
2023/06/06 03:27:00;;;;;;;4.18;1.50;;;;;;;;;;10406622;28;20029;-64
2023/06/06 03:32:01;;;;;;;1.40;1.30;;;;;;;;;;10384510;28;20029;-64
2023/06/06 03:37:02;;;;;;;3.15;1.40;;;;;;;;;;10385852;28;20072;-63
2023/06/06 03:42:03;;;;;;;1.55;1.15;;;;;;;;;;10375163;28;20131;-63
2023/06/06 03:47:04;;;;;;;2.20;1.20;;;;;;;;;;10378451;28;20034;-63
2023/06/06 03:52:05;;;;;;;3.53;1.35;;;;;;;;;;10373914;28;20036;-61
2023/06/06 03:57:10;;;;;;;2.00;1.48;;;;;;;;;;10394450;28;20097;-61
2023/06/06 04:02:11;;;;;;;5.30;1.63;;;;;;;;;;10387788;28;20033;-61
2023/06/06 04:07:12;;;;;;;1.65;1.08;;;;;;;;;;10393815;28;20029;-61
2023/06/06 04:12:12;;;;;;;3.30;1.48;;;;;;;;;;10382278;28;20030;-62
2023/06/06 04:17:13;;;;;;;4.20;1.48;;;;;;;;;;10375707;28;20041;-63
2023/06/06 04:22:15;;;;;;;1.60;1.50;;;;;;;;;;10385212;28;20105;-63
2023/06/06 04:27:16;;;;;;;3.00;1.50;;;;;;;;;;10395551;28;20048;-63
2023/06/06 04:32:21;;;;;;;5.15;1.70;;;;;;;;;;10395874;28;20476;-62
2023/06/06 04:37:24;;;;;;;1.50;1.23;;;;;;;;;;10404857;28;20029;-64
2023/06/06 04:42:32;;;;;;;1.98;1.40;;;;;;;;;;10398263;28;20048;-65
2023/06/06 04:47:40;;;;;;;3.10;1.20;;;;;;;;;;10383221;28;20034;-65
2023/06/06 04:52:40;;;;;;;2.72;1.58;;;;;;;;;;10385533;28;20043;-64
2023/06/06 04:57:44;;;;;;;2.20;1.35;;;;;;;;;;10387846;28;20037;-62
2023/06/06 05:02:52;;;;;;;4.93;1.33;;;;;;;;;;10400051;28;20040;-62
2023/06/06 05:07:55;;;;;;;3.83;1.50;;;;;;;;;;10403319;28;20183;-64
2023/06/06 05:12:56;;;;;;;4.00;1.40;;;;;;;;;;10394883;28;20084;-63
2023/06/06 05:17:57;;;;;;;2.38;1.40;;;;;;;;;;10388352;28;20492;-62
2023/06/06 05:22:59;;;;;;;2.08;1.42;;;;;;;;;;10410081;28;20025;-64
2023/06/06 05:28:00;;;;;;;1.77;1.40;;;;;;;;;;10412548;28;20029;-64
2023/06/06 05:33:03;;;;;;;2.40;1.50;;;;;;;;;;10401960;28;20607;-65
2023/06/06 05:38:04;;;;;;;6.78;1.83;;;;;;;;;;10398616;28;20044;-59
2023/06/06 05:43:08;;;;;;;3.47;1.45;;;;;;;;;;10406969;28;20203;-65
2023/06/06 05:48:09;;;;;;;5.15;1.50;;;;;;;;;;10400801;28;20037;-66
2023/06/06 05:53:09;;;;;;;3.60;1.50;;;;;;;;;;10403547;28;20029;-63
2023/06/06 05:58:10;;;;;;;5.07;1.40;;;;;;;;;;10401835;28;20035;-64
2023/06/06 06:03:14;;;;;;;7.65;1.38;;;;;;;;;;10388117;28;20029;-56
2023/06/06 06:08:15;;;;;;;7.03;1.17;;;;;;;;;;10398137;28;20054;-55
2023/06/06 06:13:15;;;;;;;5.15;1.33;;;;;;;;;;10399947;28;20113;-56
2023/06/06 06:18:18;;;;;;;4.63;1.27;;;;;;;;;;10406918;28;20033;-54
2023/06/06 06:23:19;;;;;;;5.65;1.00;;;;;;;;;;10406316;28;20028;-64
2023/06/06 06:28:21;;;;;;;9.07;1.23;;;;;;;;;;10405693;28;20025;-59
2023/06/06 06:33:23;;;;;;;3.38;1.45;;;;;;;;;;10383211;28;20092;-55
2023/06/06 06:38:24;;;;;;;6.38;1.20;;;;;;;;;;10404257;28;20030;-62
2023/06/06 06:43:25;;;;;;;5.32;1.30;;;;;;;;;;10384829;28;20485;-61
2023/06/06 06:48:26;;;;;;;1.50;1.08;;;;;;;;;;10389852;28;20029;-63
2023/06/06 06:53:30;;;;;;;1.67;1.20;;;;;;;;;;10405862;28;20410;-64
2023/06/06 06:58:33;;;;;;;1.90;1.20;;;;;;;;;;10405001;28;20021;-64
2023/06/06 07:03:34;;;;;;;2.97;1.23;;;;;;;;;;10393006;28;20103;-63
2023/06/06 07:08:35;;;;;;;1.70;1.20;;;;;;;;;;10396823;28;20048;-62
2023/06/06 07:13:35;;;;;;;2.38;1.30;;;;;;;;;;10411874;28;20029;-64
2023/06/06 07:18:36;;;;;;;1.13;1.02;;;;;;;;;;10412540;28;20021;-64
2023/06/06 07:23:36;;;;;;;2.85;1.10;;;;;;;;;;10399414;28;20447;-63
2023/06/06 07:28:37;;;;;;;1.80;1.08;;;;;;;;;;10412100;28;20029;-63
2023/06/06 07:33:37;;;;;;;3.30;1.05;;;;;;;;;;10412243;28;20114;-63
2023/06/06 07:38:38;;;;;;;2.08;1.10;;;;;;;;;;10411394;28;20034;-64
2023/06/06 07:43:41;;;;;;;1.05;0.93;;;;;;;;;;10399312;28;20041;-59
2023/06/06 07:48:41;;;;;;;2.05;1.52;;;;;;;;;;10399385;28;20030;-65
2023/06/06 07:53:43;;;;;;;1.23;1.13;;;;;;;;;;10411150;28;20519;-66
2023/06/06 07:58:53;;;;;;;1.45;1.30;;;;;;;;;;10410740;28;20021;-66
2023/06/06 08:03:54;;;;;;;1.65;1.35;;;;;;;;;;10410862;28;20108;-66
2023/06/06 08:08:55;;;;;;;1.95;1.33;;;;;;;;;;10397861;28;20371;-61
2023/06/06 08:13:55;;;;;;;1.45;1.35;;;;;;;;;;10410088;28;20026;-64
2023/06/06 08:18:56;;;;;;;4.10;1.40;;;;;;;;;;10409763;28;20176;-64
2023/06/06 08:23:57;;;;;;;3.95;1.50;;;;;;;;;;10392519;28;20029;-64
2023/06/06 08:28:58;;;;;;;1.92;1.30;;;;;;;;;;10398356;28;20038;-63
2023/06/06 08:33:58;;;;;;;2.75;1.20;;;;;;;;;;10389185;28;20549;-64
2023/06/06 08:39:04;;;;;;;1.23;1.20;;;;;;;;;;10408788;28;20061;-61
2023/06/06 08:44:05;;;;;;;2.08;1.25;;;;;;;;;;10396687;28;20365;-64
2023/06/06 08:49:10;;;;;;;1.70;1.45;;;;;;;;;;10408915;28;20025;-62
2023/06/06 08:54:11;;;;;;;3.55;1.50;;;;;;;;;;10396348;28;20045;-56
2023/06/06 08:59:12;;;;;;;1.58;1.30;;;;;;;;;;10406620;28;20036;-60
2023/06/06 09:04:15;;;;;;;2.45;1.63;;;;;;;;;;10385289;28;20022;-63
2023/06/06 09:09:19;;;;;;;2.63;1.60;;;;;;;;;;10407596;28;20036;-64
2023/06/06 09:14:19;;;;;;;2.20;1.35;;;;;;;;;;10408167;28;20134;-64
2023/06/06 09:19:26;;;;;;;1.85;1.40;;;;;;;;;;10407766;28;20033;-63
2023/06/06 09:24:30;;;;;;;2.90;1.30;;;;;;;;;;10395134;28;20025;-63
2023/06/06 09:29:39;;;;;;;2.42;1.38;;;;;;;;;;10397936;28;20026;-64
2023/06/06 09:34:40;;;;;;;2.25;1.70;;;;;;;;;;10383664;28;20049;-64
2023/06/06 09:39:40;;;;;;;1.70;1.45;;;;;;;;;;10403648;28;20048;-64
2023/06/06 09:44:42;;;;;;;1.63;1.52;;;;;;;;;;10407302;28;20017;-65
2023/06/06 09:49:43;;;;;;;3.65;1.30;;;;;;;;;;10394671;28;20053;-64
2023/06/06 09:54:43;;;;;;;1.52;1.42;;;;;;;;;;10393562;28;20045;-64
2023/06/06 09:59:48;;;;;;;3.75;1.42;;;;;;;;;;10406634;28;20039;-64
2023/06/06 10:04:56;;;;;;;1.98;1.52;;;;;;;;;;10405774;28;20013;-64
2023/06/06 10:09:57;;;;;;;1.60;1.33;;;;;;;;;;10405421;28;20017;-64
2023/06/06 10:15:01;;;;;;;2.08;1.45;;;;;;;;;;10404145;28;20064;-64
2023/06/06 10:20:06;;;;;;;2.20;1.50;;;;;;;;;;10382952;28;20604;-64
2023/06/06 10:25:11;;;;;;;1.50;1.40;;;;;;;;;;10394006;28;20018;-64
2023/06/06 10:30:26;;;;;;;1.30;1.20;;;;;;;;;;10380909;28;20535;-64
2023/06/06 10:35:28;;;;;;;1.98;1.48;;;;;;;;;;10406569;28;20394;-62
2023/06/06 10:40:41;;;;;;;1.67;1.40;;;;;;;;;;10394486;28;20084;-64
2023/06/06 10:45:45;;;;;;;1.23;1.13;;;;;;;;;;10398833;28;20052;-62
2023/06/06 10:50:56;;;;;;;3.08;1.50;;;;;;;;;;10404392;28;20116;-63
2023/06/06 10:55:57;;;;;;;1.60;1.30;;;;;;;;;;10413805;28;20025;-62
2023/06/06 11:01:06;;;;;;;2.10;1.30;;;;;;;;;;10398377;28;20511;-64
2023/06/06 11:06:09;;;;;;;1.40;1.30;;;;;;;;;;10397600;28;20073;-63
2023/06/06 11:11:30;;;;;;;2.15;1.15;;;;;;;;;;10391279;28;20052;-63
2023/06/06 11:16:40;;;;;;;1.52;1.40;;;;;;;;;;10404618;28;20045;-63
2023/06/06 11:21:50;;;;;;;1.58;1.20;;;;;;;;;;10412154;28;20029;-64
2023/06/06 11:26:53;;;;;;;1.80;1.30;;;;;;;;;;10389022;28;20076;-63
2023/06/06 11:31:54;;;;;;;1.90;1.65;;;;;;;;;;10412425;28;20030;-64
2023/06/06 11:36:58;;;;;;;1.42;1.30;;;;;;;;;;10412076;28;20025;-61
2023/06/06 11:42:00;;;;;;;1.58;1.38;;;;;;;;;;10410491;28;20038;-63
2023/06/06 11:47:08;;;;;;;1.63;1.27;;;;;;;;;;10399823;28;20463;-63
2023/06/06 11:52:10;;;;;;;1.35;1.25;;;;;;;;;;10398480;28;20044;-61
2023/06/06 11:57:10;;;;;;;1.48;1.25;;;;;;;;;;10398930;28;20030;-64
2023/06/06 12:02:13;;;;;;;1.05;1.00;;;;;;;;;;10385394;28;20026;-64
2023/06/06 12:07:13;;;;;;;1.33;1.23;;;;;;;;;;10411002;28;20504;-63
2023/06/06 12:12:14;;;;;;;1.60;1.50;;;;;;;;;;10410701;28;20116;-64
2023/06/06 12:17:16;;;;;;;2.13;1.42;;;;;;;;;;10398345;28;20025;-65
2023/06/06 12:22:35;;;;;;;1.98;1.25;;;;;;;;;;10397938;28;20025;-64
2023/06/06 12:27:36;;;;;;;3.28;1.48;;;;;;;;;;10397525;28;20022;-62
2023/06/06 12:32:38;;;;;;;4.65;1.50;;;;;;;;;;10410244;28;20032;-62
2023/06/06 12:37:47;;;;;;;2.83;1.42;;;;;;;;;;10396974;28;20053;-64
2023/06/06 12:42:57;;;;;;;2.63;1.63;;;;;;;;;;10408530;28;20033;-63
2023/06/06 12:48:01;;;;;;;1.30;1.20;;;;;;;;;;10409784;28;20030;-64
2023/06/06 12:53:02;;;;;;;3.90;1.30;;;;;;;;;;10396986;28;20025;-64
2023/06/06 12:58:11;;;;;;;4.13;1.50;;;;;;;;;;10396105;28;20041;-63
2023/06/06 13:03:13;;;;;;;2.15;1.50;;;;;;;;;;10408839;28;20350;-64
2023/06/06 13:08:16;;;;;;;6.60;1.50;;;;;;;;;;10395692;28;20061;-63
2023/06/06 13:13:23;;;;;;;3.80;1.50;;;;;;;;;;10393823;28;20124;-64
2023/06/06 13:18:26;;;;;;;3.70;1.58;;;;;;;;;;10385185;28;20029;-64
2023/06/06 13:23:28;;;;;;;4.10;1.42;;;;;;;;;;10406276;28;20025;-64
2023/06/06 13:28:28;;;;;;;2.22;1.60;;;;;;;;;;10383673;28;20025;-62
2023/06/06 13:33:29;;;;;;;5.53;1.50;;;;;;;;;;10405254;28;20045;-64
2023/06/06 13:38:30;;;;;;;5.28;1.63;;;;;;;;;;10394495;28;20061;-64
2023/06/06 13:43:30;;;;;;;2.90;1.58;;;;;;;;;;10395168;28;20083;-64
2023/06/06 13:48:32;;;;;;;5.88;1.60;;;;;;;;;;10407669;28;20049;-61
2023/06/06 13:53:33;;;;;;;3.25;1.70;;;;;;;;;;10405977;28;20449;-64
2023/06/06 13:58:40;;;;;;;3.92;1.73;;;;;;;;;;10393897;28;20454;-63
2023/06/06 14:03:40;;;;;;;5.55;1.85;;;;;;;;;;10394689;28;20265;-62
2023/06/06 14:08:41;;;;;;;3.85;2.00;;;;;;;;;;10384715;28;20570;-64
2023/06/06 14:13:44;;;;;;;2.50;1.50;;;;;;;;;;10402939;28;20456;-63
2023/06/06 14:18:46;;;;;;;3.70;1.98;;;;;;;;;;10413778;28;20029;-64
2023/06/06 14:23:51;;;;;;;4.10;1.60;;;;;;;;;;10414916;28;20025;-64
2023/06/06 14:28:51;;;;;;;4.80;1.52;;;;;;;;;;10389677;28;20018;-64
2023/06/06 14:33:52;;;;;;;3.50;1.70;;;;;;;;;;10414277;28;20025;-63
2023/06/06 14:38:53;;;;;;;3.00;1.90;;;;;;;;;;10413905;28;20199;-63
2023/06/06 14:43:56;;;;;;;2.05;1.48;;;;;;;;;;10412430;28;20033;-61
2023/06/06 14:48:59;;;;;;;2.50;1.60;;;;;;;;;;10389036;28;20066;-64
2023/06/06 14:54:02;;;;;;;2.85;1.80;;;;;;;;;;10390135;28;20053;-63
2023/06/06 14:59:03;;;;;;;3.03;1.75;;;;;;;;;;10413796;28;20033;-57
2023/06/06 15:04:03;;;;;;;4.25;1.77;;;;;;;;;;10413662;28;20029;-57
2023/06/06 15:09:04;;;;;;;1.73;1.40;;;;;;;;;;10413883;28;20245;-54
2023/06/06 15:14:05;;;;;;;2.53;1.90;;;;;;;;;;10399128;28;20041;-57
2023/06/06 15:19:12;;;;;;;3.45;1.40;;;;;;;;;;10405850;28;20034;-59
2023/06/06 15:24:18;;;;;;;2.03;1.70;;;;;;;;;;10408082;28;20048;-64
2023/06/06 15:29:19;;;;;;;2.35;1.83;;;;;;;;;;10411065;28;20029;-55
2023/06/06 15:34:20;;;;;;;2.10;1.70;;;;;;;;;;10392709;28;20037;-56
2023/06/06 15:39:20;;;;;;;3.00;1.63;;;;;;;;;;10393250;28;20585;-57
2023/06/06 15:44:21;;;;;;;3.15;1.75;;;;;;;;;;10398823;28;20021;-63
2023/06/06 15:49:21;;;;;;;4.30;2.00;;;;;;;;;;10407098;28;20101;-65
2023/06/06 15:54:24;;;;;;;2.65;1.60;;;;;;;;;;10402809;28;20018;-62
2023/06/06 15:59:28;;;;;;;1.90;1.67;;;;;;;;;;10410896;28;20028;-64
2023/06/06 16:04:29;;;;;;;4.30;1.80;;;;;;;;;;10411028;28;20440;-64
2023/06/06 16:09:30;;;;;;;2.08;1.88;;;;;;;;;;10411184;28;20091;-64
2023/06/06 16:14:31;;;;;;;2.40;1.65;;;;;;;;;;10411022;28;20542;-61
2023/06/06 16:19:31;;;;;;;2.10;1.85;;;;;;;;;;10397406;28;20029;-58
2023/06/06 16:24:38;;;;;;;2.00;1.70;;;;;;;;;;10399692;28;20021;-60
2023/06/06 16:29:38;;;;;;;2.63;2.00;;;;;;;;;;10408024;28;20053;-59
2023/06/06 16:34:42;;;;;;;1.88;1.65;;;;;;;;;;10397962;28;20041;-65
2023/06/06 16:39:42;;;;;;;2.38;1.77;;;;;;;;;;10400112;28;20770;-63
2023/06/06 16:44:43;;;;;;;2.25;1.83;;;;;;;;;;10398758;28;20038;-59
2023/06/06 16:49:46;;;;;;;4.85;2.05;;;;;;;;;;10405554;28;20393;-57
2023/06/06 16:54:51;;;;;;;3.50;1.60;;;;;;;;;;10409229;28;20096;-64
2023/06/06 16:59:52;;;;;;;2.28;1.75;;;;;;;;;;10409777;28;20075;-60
2023/06/06 17:04:56;;;;;;;5.15;1.85;;;;;;;;;;10408851;28;20488;-61
2023/06/06 17:09:57;;;;;;;2.92;1.83;;;;;;;;;;10408950;28;20025;-64
2023/06/06 17:14:58;;;;;;;3.10;1.80;;;;;;;;;;10412940;28;20047;-64
2023/06/06 17:19:59;;;;;;;1.80;1.70;;;;;;;;;;10407567;28;20099;-63
2023/06/06 17:25:00;;;;;;;3.10;1.70;;;;;;;;;;10408106;28;20034;-60
2023/06/06 17:30:01;;;;;;;2.67;1.77;;;;;;;;;;10392928;28;20037;-57
2023/06/06 17:35:03;;;;;;;1.90;1.80;;;;;;;;;;10406230;28;20052;-61
2023/06/06 17:40:07;;;;;;;4.47;2.03;;;;;;;;;;10394331;28;20147;-60
2023/06/06 17:45:08;;;;;;;4.75;1.65;;;;;;;;;;10380491;28;20290;-59
2023/06/06 17:50:09;;;;;;;2.10;1.88;;;;;;;;;;10407960;28;20036;-58
2023/06/06 17:55:10;;;;;;;2.15;1.70;;;;;;;;;;10406255;28;20044;-57
2023/06/06 18:00:17;;;;;;;3.08;1.92;;;;;;;;;;10398196;28;20032;-59
2023/06/06 18:05:18;;;;;;;2.58;1.73;;;;;;;;;;10403530;28;20056;-57
2023/06/06 18:10:18;;;;;;;4.07;1.83;;;;;;;;;;10395802;28;20029;-58
2023/06/06 18:15:22;;;;;;;1.98;1.77;;;;;;;;;;10393487;28;20447;-61
2023/06/06 18:20:23;;;;;;;5.45;1.88;;;;;;;;;;10404469;28;20048;-60
2023/06/06 18:25:27;;;;;;;2.13;1.60;;;;;;;;;;10406376;28;20014;-59
2023/06/06 18:30:27;;;;;;;1.65;1.55;;;;;;;;;;10403116;28;20117;-61
2023/06/06 18:35:30;;;;;;;3.38;1.70;;;;;;;;;;10383770;28;20041;-55
2023/06/06 18:40:31;;;;;;;2.50;1.85;;;;;;;;;;10405388;28;20080;-55
2023/06/06 18:45:31;;;;;;;2.15;1.75;;;;;;;;;;10410466;28;20028;-56
2023/06/06 18:50:32;;;;;;;1.60;1.50;;;;;;;;;;10392091;28;20482;-56
2023/06/06 18:55:35;;;;;;;1.90;1.73;;;;;;;;;;10406274;28;20654;-54
2023/06/06 19:00:35;;;;;;;1.65;1.55;;;;;;;;;;10382627;28;20049;-55
2023/06/06 19:05:36;;;;;;;2.10;1.73;;;;;;;;;;10409864;28;20382;-55
2023/06/06 19:10:36;;;;;;;2.83;1.80;;;;;;;;;;10410275;28;20033;-56
2023/06/06 19:15:37;;;;;;;2.20;2.00;;;;;;;;;;10415367;28;20059;-55
2023/06/06 19:20:37;;;;;;;3.30;1.80;;;;;;;;;;10395610;28;20026;-55
2023/06/06 19:25:38;;;;;;;2.28;1.80;;;;;;;;;;10385831;28;20033;-52
2023/06/06 19:30:39;;;;;;;3.50;1.90;;;;;;;;;;10400046;28;20029;-53
2023/06/06 19:35:39;;;;;;;2.72;1.77;;;;;;;;;;10406625;28;20076;-56
2023/06/06 19:40:45;;;;;;;2.83;2.08;;;;;;;;;;10399555;28;20511;-57
2023/06/06 19:45:46;;;;;;;7.25;2.60;;;;;;;;;;10403423;28;20021;-58
2023/06/06 19:50:55;;;;;;;4.70;2.40;;;;;;;;;;10407702;28;20068;-58
2023/06/06 19:55:56;;;;;;;8.68;2.55;;;;;;;;;;10398696;28;20391;-58
2023/06/06 20:00:59;;;;;;;7.03;3.17;;;;;;;;;;10403638;28;20025;-58
2023/06/06 20:06:00;;;;;;;6.05;3.83;;;;;;;;;;10406445;28;20464;-64
2023/06/06 20:11:06;;;;;;;5.45;3.63;;;;;;;;;;10406356;28;20032;-57
2023/06/06 20:16:17;;;;;;;7.07;3.20;;;;;;;;;;10400938;28;20091;-59
2023/06/06 20:21:46;;;;;;;3.90;3.50;;;;;;;;;;10409592;28;20496;-59
2023/06/06 20:26:48;;;;;;;6.53;4.10;;;;;;;;;;10387656;28;20055;-61
2023/06/06 20:31:49;;;;;;;5.18;3.63;;;;;;;;;;10400344;28;20029;-57
2023/06/06 20:36:50;;;;;;;6.03;4.03;;;;;;;;;;10408585;28;20037;-57
2023/06/06 20:41:53;;;;;;;5.63;4.32;;;;;;;;;;10409685;28;20058;-58
2023/06/06 20:46:55;;;;;;;9.48;4.70;;;;;;;;;;10409164;28;20611;-57
2023/06/06 20:51:56;;;;;;;5.35;4.32;;;;;;;;;;10406464;28;20098;-58
2023/06/06 20:56:57;;;;;;;5.97;4.90;;;;;;;;;;10407835;28;20056;-57
2023/06/06 21:01:58;;;;;;;7.05;4.90;;;;;;;;;;10407163;28;20116;-58
2023/06/06 21:06:59;;;;;;;6.13;4.38;;;;;;;;;;10408062;28;20013;-57
2023/06/06 21:12:00;;;;;;;5.38;4.53;;;;;;;;;;10406052;28;20029;-57
2023/06/06 21:17:01;;;;;;;4.53;3.90;;;;;;;;;;10403678;28;20446;-58
2023/06/06 21:22:02;;;;;;;7.00;3.60;;;;;;;;;;10382735;28;20057;-63
2023/06/06 21:27:03;;;;;;;5.30;3.33;;;;;;;;;;10395798;28;20029;-58
2023/06/06 21:32:04;;;;;;;10.77;3.15;;;;;;;;;;10395593;28;20060;-58
2023/06/06 21:37:07;;;;;;;5.22;2.97;;;;;;;;;;10391370;28;20489;-64
2023/06/06 21:42:08;;;;;;;4.93;2.97;;;;;;;;;;10394819;28;20232;-66
2023/06/06 21:47:08;;;;;;;8.90;3.10;;;;;;;;;;10408045;28;20162;-65
2023/06/06 21:52:10;;;;;;;9.07;2.55;;;;;;;;;;10398001;28;20400;-58
2023/06/06 21:57:13;;;;;;;9.40;3.17;;;;;;;;;;10405483;28;20254;-59
2023/06/06 22:02:14;;;;;;;15.02;2.63;;;;;;;;;;10405488;28;20064;-63
2023/06/06 22:07:25;;;;;;;4.03;2.25;;;;;;;;;;10406011;28;20432;-64
2023/06/06 22:12:26;;;;;;;5.43;2.42;;;;;;;;;;10403823;28;20104;-64
2023/06/06 22:17:27;;;;;;;4.93;2.17;;;;;;;;;;10404080;28;20048;-63
2023/06/06 22:22:28;;;;;;;6.03;2.50;;;;;;;;;;10405064;28;20492;-64
2023/06/06 22:27:29;;;;;;;5.03;2.13;;;;;;;;;;10405891;28;20021;-64
2023/06/06 22:32:32;;;;;;;4.97;2.03;;;;;;;;;;10403782;28;20220;-63
2023/06/06 22:37:32;;;;;;;3.90;2.15;;;;;;;;;;10408572;28;20091;-64
2023/06/06 22:42:33;;;;;;;7.10;1.83;;;;;;;;;;10412979;28;20560;-64
2023/06/06 22:47:34;;;;;;;4.30;1.65;;;;;;;;;;10413129;28;20481;-64
2023/06/06 22:52:34;;;;;;;3.90;1.67;;;;;;;;;;10412160;28;20381;-64
2023/06/06 22:57:44;;;;;;;4.18;1.65;;;;;;;;;;10413345;28;20397;-59
2023/06/06 23:02:44;;;;;;;3.80;1.50;;;;;;;;;;10412201;28;20493;-60
2023/06/06 23:07:46;;;;;;;5.00;1.85;;;;;;;;;;10413171;28;20026;-63
2023/06/06 23:12:54;;;;;;;2.53;1.60;;;;;;;;;;10409497;28;20037;-64
2023/06/06 23:17:57;;;;;;;;;;;;;;;;;;10412444;28;20040;-63
2023/06/06 23:22:57;;;;;;;7.57;1.30;;;;;;;;;;10411829;28;20063;-59
2023/06/06 23:27:58;;;;;;;4.63;1.50;;;;;;;;;;10411131;28;20469;-63
2023/06/06 23:33:01;;;;;;;2.15;1.40;;;;;;;;;;10410498;28;20468;-64
2023/06/06 23:38:14;;;;;;;2.58;1.48;;;;;;;;;;10411311;28;20186;-64
2023/06/06 23:43:15;;;;;;;5.15;1.42;;;;;;;;;;10410279;28;20056;-64
2023/06/06 23:48:18;;;;;;;1.70;1.40;;;;;;;;;;10409221;28;20036;-64
2023/06/06 23:53:18;;;;;;;4.28;1.52;;;;;;;;;;10409022;28;20037;-64
2023/06/06 23:58:19;;;;;;;1.83;1.48;;;;;;;;;;10410171;28;20029;-65
